sensor_id;sensor_type;location;lat;lon;timestamp;pressure;altitude;pressure_sealevel;temperature;humidity
64200;BME280;50516;52.272;5.136;2023-12-07T00:00:50;101960.66;;;1.96;82.71
64200;BME280;50516;52.272;5.136;2023-12-07T00:03:15;101962.72;;;1.94;81.90
64200;BME280;50516;52.272;5.136;2023-12-07T00:05:41;101955.97;;;1.90;82.46
64200;BME280;50516;52.272;5.136;2023-12-07T00:08:09;101955.97;;;1.90;82.43
64200;BME280;50516;52.272;5.136;2023-12-07T00:10:34;101961.88;;;1.94;82.57
64200;BME280;50516;52.272;5.136;2023-12-07T00:13:00;101955.41;;;1.95;82.03
64200;BME280;50516;52.272;5.136;2023-12-07T00:15:25;101956.84;;;1.91;82.77
64200;BME280;50516;52.272;5.136;2023-12-07T00:17:50;101951.78;;;1.88;82.69
64200;BME280;50516;52.272;5.136;2023-12-07T00:20:16;101951.97;;;1.86;82.54
64200;BME280;50516;52.272;5.136;2023-12-07T00:22:41;101950.94;;;1.87;82.64
64200;BME280;50516;52.272;5.136;2023-12-07T00:25:06;101949.19;;;1.79;82.77
64200;BME280;50516;52.272;5.136;2023-12-07T00:27:32;101947.03;;;1.75;82.69
64200;BME280;50516;52.272;5.136;2023-12-07T00:29:57;101947.41;;;1.72;82.58
64200;BME280;50516;52.272;5.136;2023-12-07T00:32:22;101940.94;;;1.73;82.50
64200;BME280;50516;52.272;5.136;2023-12-07T00:34:48;101940.66;;;1.68;82.36
64200;BME280;50516;52.272;5.136;2023-12-07T00:37:14;101942.53;;;1.67;82.95
64200;BME280;50516;52.272;5.136;2023-12-07T00:39:40;101939.00;;;1.67;82.46
64200;BME280;50516;52.272;5.136;2023-12-07T00:42:06;101938.63;;;1.70;82.68
64200;BME280;50516;52.272;5.136;2023-12-07T00:44:31;101948.78;;;1.68;82.43
64200;BME280;50516;52.272;5.136;2023-12-07T00:46:56;101937.75;;;1.69;82.27
64200;BME280;50516;52.272;5.136;2023-12-07T00:49:22;101950.84;;;1.66;82.28
64200;BME280;50516;52.272;5.136;2023-12-07T00:51:47;101945.63;;;1.64;82.17
64200;BME280;50516;52.272;5.136;2023-12-07T00:54:12;101948.50;;;1.62;82.61
64200;BME280;50516;52.272;5.136;2023-12-07T00:56:38;101950.56;;;1.60;82.68
64200;BME280;50516;52.272;5.136;2023-12-07T00:59:03;101956.63;;;1.62;82.04
64200;BME280;50516;52.272;5.136;2023-12-07T01:01:29;101951.22;;;1.62;82.11
64200;BME280;50516;52.272;5.136;2023-12-07T01:03:54;101953.28;;;1.60;82.53
64200;BME280;50516;52.272;5.136;2023-12-07T01:06:19;101954.28;;;1.59;82.68
64200;BME280;50516;52.272;5.136;2023-12-07T01:08:45;101950.56;;;1.60;82.66
64200;BME280;50516;52.272;5.136;2023-12-07T01:11:10;101958.69;;;1.60;82.39
64200;BME280;50516;52.272;5.136;2023-12-07T01:13:35;101953.19;;;1.54;82.24
64200;BME280;50516;52.272;5.136;2023-12-07T01:16:01;101956.06;;;1.52;82.62
64200;BME280;50516;52.272;5.136;2023-12-07T01:18:26;101948.13;;;1.51;82.47
64200;BME280;50516;52.272;5.136;2023-12-07T01:20:52;101948.97;;;1.51;82.25
64200;BME280;50516;52.272;5.136;2023-12-07T01:23:17;101944.50;;;1.58;81.96
64200;BME280;50516;52.272;5.136;2023-12-07T01:25:42;101953.34;;;1.52;82.02
64200;BME280;50516;52.272;5.136;2023-12-07T01:28:07;101956.06;;;1.52;82.27
64200;BME280;50516;52.272;5.136;2023-12-07T01:30:33;101947.94;;;1.52;82.14
64200;BME280;50516;52.272;5.136;2023-12-07T01:32:58;101957.72;;;1.53;82.81
64200;BME280;50516;52.272;5.136;2023-12-07T01:35:23;101955.34;;;1.58;81.90
64200;BME280;50516;52.272;5.136;2023-12-07T01:37:49;101961.13;;;1.55;81.78
64200;BME280;50516;52.272;5.136;2023-12-07T01:40:14;101966.34;;;1.57;81.51
64200;BME280;50516;52.272;5.136;2023-12-07T01:42:42;101959.97;;;1.50;81.65
64200;BME280;50516;52.272;5.136;2023-12-07T01:45:14;101958.50;;;1.47;82.13
64200;BME280;50516;52.272;5.136;2023-12-07T01:47:39;101959.78;;;1.51;81.75
64200;BME280;50516;52.272;5.136;2023-12-07T01:50:05;101958.41;;;1.55;81.12
64200;BME280;50516;52.272;5.136;2023-12-07T01:52:31;101954.75;;;1.48;81.35
64200;BME280;50516;52.272;5.136;2023-12-07T01:54:57;101965.56;;;1.48;81.18
64200;BME280;50516;52.272;5.136;2023-12-07T01:57:23;101961.19;;;1.47;81.53
64200;BME280;50516;52.272;5.136;2023-12-07T01:59:49;101956.16;;;1.44;81.33
64200;BME280;50516;52.272;5.136;2023-12-07T02:02:15;101958.00;;;1.43;81.15
64200;BME280;50516;52.272;5.136;2023-12-07T02:04:41;101962.03;;;1.48;81.27
64200;BME280;50516;52.272;5.136;2023-12-07T02:07:06;101959.50;;;1.46;81.52
64200;BME280;50516;52.272;5.136;2023-12-07T02:09:32;101962.75;;;1.41;82.06
64200;BME280;50516;52.272;5.136;2023-12-07T02:11:57;101963.22;;;1.45;81.68
64200;BME280;50516;52.272;5.136;2023-12-07T02:14:23;101963.41;;;1.43;81.67
64200;BME280;50516;52.272;5.136;2023-12-07T02:16:51;101963.22;;;1.45;81.39
64200;BME280;50516;52.272;5.136;2023-12-07T02:22:10;101955.28;;;1.43;81.96
64200;BME280;50516;52.272;5.136;2023-12-07T02:24:37;101956.50;;;1.41;82.33
64200;BME280;50516;52.272;5.136;2023-12-07T02:27:05;101964.09;;;1.45;82.04
64200;BME280;50516;52.272;5.136;2023-12-07T02:29:30;101959.50;;;1.46;82.23
64200;BME280;50516;52.272;5.136;2023-12-07T02:31:55;101955.09;;;1.45;82.25
64200;BME280;50516;52.272;5.136;2023-12-07T02:34:21;101959.13;;;1.49;82.63
64200;BME280;50516;52.272;5.136;2023-12-07T02:36:48;101956.16;;;1.44;81.92
64200;BME280;50516;52.272;5.136;2023-12-07T02:39:14;101949.03;;;1.43;82.22
64200;BME280;50516;52.272;5.136;2023-12-07T02:41:40;101948.03;;;1.44;82.16
64200;BME280;50516;52.272;5.136;2023-12-07T02:44:07;101940.28;;;1.41;82.74
64200;BME280;50516;52.272;5.136;2023-12-07T02:46:33;101947.34;;;1.42;82.34
64200;BME280;50516;52.272;5.136;2023-12-07T02:48:58;101946.53;;;1.41;83.09
64200;BME280;50516;52.272;5.136;2023-12-07T02:51:24;101937.56;;;1.41;82.55
64200;BME280;50516;52.272;5.136;2023-12-07T02:53:49;101936.53;;;1.42;83.63
64200;BME280;50516;52.272;5.136;2023-12-07T02:56:14;101949.03;;;1.43;83.00
64200;BME280;50516;52.272;5.136;2023-12-07T02:58:39;101954.28;;;1.44;82.88
64200;BME280;50516;52.272;5.136;2023-12-07T03:01:05;101951.19;;;1.48;82.65
64200;BME280;50516;52.272;5.136;2023-12-07T03:03:30;101952.03;;;1.48;82.88
64200;BME280;50516;52.272;5.136;2023-12-07T03:05:55;101954.91;;;1.46;82.82
64200;BME280;50516;52.272;5.136;2023-12-07T03:08:21;101940.91;;;1.43;83.00
64200;BME280;50516;52.272;5.136;2023-12-07T03:10:46;101947.34;;;1.42;82.96
64200;BME280;50516;52.272;5.136;2023-12-07T03:13:12;101945.31;;;1.44;82.75
64200;BME280;50516;52.272;5.136;2023-12-07T03:15:37;101950.72;;;1.44;82.88
64200;BME280;50516;52.272;5.136;2023-12-07T03:18:02;101949.50;;;1.46;82.33
64200;BME280;50516;52.272;5.136;2023-12-07T03:20:28;101950.84;;;1.51;82.51
64200;BME280;50516;52.272;5.136;2023-12-07T03:22:53;101955.78;;;1.47;83.07
64200;BME280;50516;52.272;5.136;2023-12-07T03:25:18;101958.19;;;1.42;83.16
64200;BME280;50516;52.272;5.136;2023-12-07T03:27:43;101961.75;;;1.42;82.51
64200;BME280;50516;52.272;5.136;2023-12-07T03:30:09;101955.19;;;1.37;83.59
64200;BME280;50516;52.272;5.136;2023-12-07T03:32:34;101963.13;;;1.38;82.95
64200;BME280;50516;52.272;5.136;2023-12-07T03:35:00;101964.16;;;1.37;83.22
64200;BME280;50516;52.272;5.136;2023-12-07T03:37:25;101961.66;;;1.36;82.78
64200;BME280;50516;52.272;5.136;2023-12-07T03:39:50;101968.72;;;1.37;82.21
64200;BME280;50516;52.272;5.136;2023-12-07T03:42:15;101967.88;;;1.36;82.80
64200;BME280;50516;52.272;5.136;2023-12-07T03:44:41;101973.13;;;1.38;82.63
64200;BME280;50516;52.272;5.136;2023-12-07T03:47:07;101958.44;;;1.32;82.47
64200;BME280;50516;52.272;5.136;2023-12-07T03:49:33;101965.72;;;1.32;82.78
64200;BME280;50516;52.272;5.136;2023-12-07T03:51:58;101962.91;;;1.25;82.81
64200;BME280;50516;52.272;5.136;2023-12-07T03:54:23;101965.44;;;1.26;83.21
64200;BME280;50516;52.272;5.136;2023-12-07T03:56:48;101967.50;;;1.24;82.18
64200;BME280;50516;52.272;5.136;2023-12-07T03:59:14;101976.81;;;1.22;82.63
64200;BME280;50516;52.272;5.136;2023-12-07T04:01:40;101959.91;;;1.20;82.84
64200;BME280;50516;52.272;5.136;2023-12-07T04:04:05;101950.94;;;1.19;82.71
64200;BME280;50516;52.272;5.136;2023-12-07T04:06:30;101958.69;;;1.22;82.58
64200;BME280;50516;52.272;5.136;2023-12-07T04:08:56;101956.69;;;1.24;82.77
64200;BME280;50516;52.272;5.136;2023-12-07T04:11:21;101965.34;;;1.20;83.15
64200;BME280;50516;52.272;5.136;2023-12-07T04:13:47;101957.75;;;1.15;82.66
64200;BME280;50516;52.272;5.136;2023-12-07T04:16:12;101961.13;;;1.17;82.37
64200;BME280;50516;52.272;5.136;2023-12-07T04:18:38;101957.22;;;1.20;82.60
64200;BME280;50516;52.272;5.136;2023-12-07T04:21:03;101953.28;;;1.22;82.19
64200;BME280;50516;52.272;5.136;2023-12-07T04:23:29;101958.34;;;1.25;83.26
64200;BME280;50516;52.272;5.136;2023-12-07T04:25:54;101966.81;;;1.22;82.03
64200;BME280;50516;52.272;5.136;2023-12-07T04:28:20;101964.47;;;1.19;82.19
64200;BME280;50516;52.272;5.136;2023-12-07T04:30:45;101955.06;;;1.15;82.52
64200;BME280;50516;52.272;5.136;2023-12-07T04:33:10;101951.69;;;1.13;82.55
64200;BME280;50516;52.272;5.136;2023-12-07T04:35:36;101953.66;;;1.19;81.94
64200;BME280;50516;52.272;5.136;2023-12-07T04:38:01;101953.75;;;1.26;81.66
64200;BME280;50516;52.272;5.136;2023-12-07T04:40:27;101960.31;;;1.32;82.52
64200;BME280;50516;52.272;5.136;2023-12-07T04:42:52;101961.31;;;1.31;82.37
64200;BME280;50516;52.272;5.136;2023-12-07T04:45:18;101961.22;;;1.24;82.34
64200;BME280;50516;52.272;5.136;2023-12-07T04:47:43;101963.56;;;1.27;83.34
64200;BME280;50516;52.272;5.136;2023-12-07T04:50:08;101954.06;;;1.31;83.45
64200;BME280;50516;52.272;5.136;2023-12-07T04:52:35;101955.09;;;1.30;83.19
64200;BME280;50516;52.272;5.136;2023-12-07T04:55:00;101952.84;;;1.34;83.46
64200;BME280;50516;52.272;5.136;2023-12-07T04:57:26;101951.72;;;1.28;82.72
64200;BME280;50516;52.272;5.136;2023-12-07T04:59:51;101949.66;;;1.30;82.70
64200;BME280;50516;52.272;5.136;2023-12-07T05:02:16;101956.41;;;1.34;82.86
64200;BME280;50516;52.272;5.136;2023-12-07T05:04:45;101952.56;;;1.28;82.75
64200;BME280;50516;52.272;5.136;2023-12-07T05:07:13;101947.50;;;1.25;83.33
64200;BME280;50516;52.272;5.136;2023-12-07T05:09:39;101947.97;;;1.29;83.94
64200;BME280;50516;52.272;5.136;2023-12-07T05:12:05;101947.72;;;1.39;83.49
64200;BME280;50516;52.272;5.136;2023-12-07T05:14:31;101945.31;;;1.44;83.90
64200;BME280;50516;52.272;5.136;2023-12-07T05:16:56;101944.97;;;1.47;83.46
64200;BME280;50516;52.272;5.136;2023-12-07T05:19:23;101942.91;;;1.49;84.07
64200;BME280;50516;52.272;5.136;2023-12-07T05:21:48;101943.25;;;1.46;83.45
64200;BME280;50516;52.272;5.136;2023-12-07T05:24:14;101942.25;;;1.47;83.27
64200;BME280;50516;52.272;5.136;2023-12-07T05:26:44;101933.72;;;1.50;82.92
64200;BME280;50516;52.272;5.136;2023-12-07T05:29:11;101946.72;;;1.55;83.33
64200;BME280;50516;52.272;5.136;2023-12-07T05:31:37;101937.75;;;1.54;83.75
64200;BME280;50516;52.272;5.136;2023-12-07T05:34:02;101933.16;;;1.40;83.72
64200;BME280;50516;52.272;5.136;2023-12-07T05:36:28;101931.78;;;1.44;83.97
64200;BME280;50516;52.272;5.136;2023-12-07T05:38:54;101930.09;;;1.43;83.64
64200;BME280;50516;52.272;5.136;2023-12-07T05:41:19;101925.34;;;1.45;84.25
64200;BME280;50516;52.272;5.136;2023-12-07T05:43:44;101917.88;;;1.47;85.04
64200;BME280;50516;52.272;5.136;2023-12-07T05:46:10;101921.78;;;1.44;84.54
64200;BME280;50516;52.272;5.136;2023-12-07T05:48:35;101927.31;;;1.51;85.05
64200;BME280;50516;52.272;5.136;2023-12-07T05:51:04;101922.53;;;1.53;85.03
64200;BME280;50516;52.272;5.136;2023-12-07T05:53:29;101929.09;;;1.44;84.45
64200;BME280;50516;52.272;5.136;2023-12-07T05:55:57;101924.50;;;1.44;84.63
64200;BME280;50516;52.272;5.136;2023-12-07T05:58:22;101924.78;;;1.50;85.19
64200;BME280;50516;52.272;5.136;2023-12-07T06:00:48;101924.97;;;1.48;84.40
64200;BME280;50516;52.272;5.136;2023-12-07T06:03:13;101918.16;;;1.52;85.33
64200;BME280;50516;52.272;5.136;2023-12-07T06:05:39;101913.03;;;1.57;86.24
64200;BME280;50516;52.272;5.136;2023-12-07T06:08:05;101922.44;;;1.61;86.18
64200;BME280;50516;52.272;5.136;2023-12-07T06:10:30;101932.44;;;1.46;84.64
64200;BME280;50516;52.272;5.136;2023-12-07T06:12:56;101933.44;;;1.45;84.06
64200;BME280;50516;52.272;5.136;2023-12-07T06:15:23;101940.56;;;1.46;83.72
64200;BME280;50516;52.272;5.136;2023-12-07T06:17:49;101936.53;;;1.42;83.94
64200;BME280;50516;52.272;5.136;2023-12-07T06:20:14;101941.19;;;1.33;86.72
64200;BME280;50516;52.272;5.136;2023-12-07T06:22:40;101949.41;;;1.40;87.26
64200;BME280;50516;52.272;5.136;2023-12-07T06:25:06;101950.72;;;1.44;86.80
64200;BME280;50516;52.272;5.136;2023-12-07T06:27:34;101947.84;;;1.45;87.08
64200;BME280;50516;52.272;5.136;2023-12-07T06:29:59;101957.25;;;1.50;86.85
64200;BME280;50516;52.272;5.136;2023-12-07T06:32:25;101961.38;;;1.45;87.29
64200;BME280;50516;52.272;5.136;2023-12-07T06:34:50;101959.03;;;1.42;88.35
64200;BME280;50516;52.272;5.136;2023-12-07T06:37:15;101953.44;;;1.44;88.70
64200;BME280;50516;52.272;5.136;2023-12-07T06:39:42;101950.72;;;1.44;89.04
64200;BME280;50516;52.272;5.136;2023-12-07T06:42:07;101949.78;;;1.52;89.65
64200;BME280;50516;52.272;5.136;2023-12-07T06:44:33;101947.94;;;1.52;89.54
64200;BME280;50516;52.272;5.136;2023-12-07T06:46:58;101944.50;;;1.58;90.10
64200;BME280;50516;52.272;5.136;2023-12-07T06:49:23;101950.84;;;1.51;90.52
64200;BME280;50516;52.272;5.136;2023-12-07T06:51:49;101949.16;;;1.50;90.83
64200;BME280;50516;52.272;5.136;2023-12-07T06:54:14;101943.72;;;1.50;91.57
64200;BME280;50516;52.272;5.136;2023-12-07T06:56:39;101952.63;;;1.58;91.21
64200;BME280;50516;52.272;5.136;2023-12-07T06:59:05;101945.78;;;1.62;91.49
64200;BME280;50516;52.272;5.136;2023-12-07T07:01:30;101941.88;;;1.65;91.10
64200;BME280;50516;52.272;5.136;2023-12-07T07:03:55;101931.53;;;1.69;91.46
64200;BME280;50516;52.272;5.136;2023-12-07T07:06:21;101936.38;;;1.58;92.13
64200;BME280;50516;52.272;5.136;2023-12-07T07:08:47;101934.50;;;1.59;92.16
64200;BME280;50516;52.272;5.136;2023-12-07T07:11:12;101939.19;;;1.65;91.74
64200;BME280;50516;52.272;5.136;2023-12-07T07:13:39;101946.34;;;1.58;92.42
64200;BME280;50516;52.272;5.136;2023-12-07T07:16:05;101951.28;;;1.54;92.36
64200;BME280;50516;52.272;5.136;2023-12-07T07:18:30;101951.19;;;1.48;93.81
64200;BME280;50516;52.272;5.136;2023-12-07T07:20:55;101952.63;;;1.58;93.52
64200;BME280;50516;52.272;5.136;2023-12-07T07:23:20;101951.47;;;1.68;93.07
64200;BME280;50516;52.272;5.136;2023-12-07T07:25:46;101964.84;;;1.69;92.61
64200;BME280;50516;52.272;5.136;2023-12-07T07:28:11;101959.97;;;1.64;92.91
64200;BME280;50516;52.272;5.136;2023-12-07T07:30:36;101953.91;;;1.62;93.62
64200;BME280;50516;52.272;5.136;2023-12-07T07:33:02;101947.22;;;1.58;93.25
64200;BME280;50516;52.272;5.136;2023-12-07T07:35:28;101943.81;;;1.56;93.85
64200;BME280;50516;52.272;5.136;2023-12-07T07:37:54;101949.81;;;1.67;93.72
64200;BME280;50516;52.272;5.136;2023-12-07T07:40:19;101949.47;;;1.70;93.66
64200;BME280;50516;52.272;5.136;2023-12-07T07:42:44;101952.81;;;1.72;93.32
64200;BME280;50516;52.272;5.136;2023-12-07T07:45:10;101947.03;;;1.75;93.67
64200;BME280;50516;52.272;5.136;2023-12-07T07:47:36;101958.41;;;1.70;93.28
64200;BME280;50516;52.272;5.136;2023-12-07T07:50:01;101960.09;;;1.71;93.29
64200;BME280;50516;52.272;5.136;2023-12-07T07:52:30;101964.84;;;1.69;93.64
64200;BME280;50516;52.272;5.136;2023-12-07T07:54:56;101976.53;;;1.70;93.67
64200;BME280;50516;52.272;5.136;2023-12-07T07:57:21;101977.19;;;1.72;93.65
64200;BME280;50516;52.272;5.136;2023-12-07T07:59:46;101969.97;;;1.79;94.10
64200;BME280;50516;52.272;5.136;2023-12-07T08:02:11;101958.41;;;1.85;93.28
64200;BME280;50516;52.272;5.136;2023-12-07T08:04:37;101952.63;;;1.88;93.45
64200;BME280;50516;52.272;5.136;2023-12-07T08:07:02;101951.97;;;1.86;93.67
64200;BME280;50516;52.272;5.136;2023-12-07T08:09:27;101951.97;;;1.86;93.55
64200;BME280;50516;52.272;5.136;2023-12-07T08:11:53;101953.94;;;1.92;93.95
64200;BME280;50516;52.272;5.136;2023-12-07T08:14:18;101956.66;;;1.92;93.42
64200;BME280;50516;52.272;5.136;2023-12-07T08:16:46;101963.91;;;1.77;93.69
64200;BME280;50516;52.272;5.136;2023-12-07T08:19:12;101959.50;;;1.76;94.15
64200;BME280;50516;52.272;5.136;2023-12-07T08:21:38;101951.50;;;1.82;93.88
64200;BME280;50516;52.272;5.136;2023-12-07T08:24:04;101964.19;;;1.82;94.14
64200;BME280;50516;52.272;5.136;2023-12-07T08:26:30;101959.63;;;1.82;93.97
64200;BME280;50516;52.272;5.136;2023-12-07T08:28:55;101966.91;;;1.82;94.10
64200;BME280;50516;52.272;5.136;2023-12-07T08:31:21;101961.38;;;1.90;94.02
64200;BME280;50516;52.272;5.136;2023-12-07T08:33:48;101960.75;;;1.88;94.03
64200;BME280;50516;52.272;5.136;2023-12-07T08:36:13;101963.47;;;1.73;95.11
64200;BME280;50516;52.272;5.136;2023-12-07T08:38:38;101961.00;;;1.93;94.16
64200;BME280;50516;52.272;5.136;2023-12-07T08:41:04;101958.22;;;2.01;93.91
64200;BME280;50516;52.272;5.136;2023-12-07T08:43:29;101959.72;;;2.04;93.94
64200;BME280;50516;52.272;5.136;2023-12-07T08:45:55;101947.44;;;2.08;93.94
64200;BME280;50516;52.272;5.136;2023-12-07T08:48:21;101952.56;;;2.18;94.04
64200;BME280;50516;52.272;5.136;2023-12-07T08:50:46;101952.97;;;2.15;93.11
64200;BME280;50516;52.272;5.136;2023-12-07T08:53:12;101955.69;;;2.15;93.62
64200;BME280;50516;52.272;5.136;2023-12-07T08:55:37;101948.28;;;2.24;93.18
64200;BME280;50516;52.272;5.136;2023-12-07T08:58:02;101950.25;;;2.30;92.94
64200;BME280;50516;52.272;5.136;2023-12-07T09:00:31;101945.16;;;2.42;92.93
64200;BME280;50516;52.272;5.136;2023-12-07T09:02:56;101942.44;;;2.42;92.97
64200;BME280;50516;52.272;5.136;2023-12-07T09:05:22;101943.69;;;2.39;92.62
64200;BME280;50516;52.272;5.136;2023-12-07T09:07:47;101936.69;;;2.30;92.02
64200;BME280;50516;52.272;5.136;2023-12-07T09:10:12;101937.78;;;2.35;93.20
64200;BME280;50516;52.272;5.136;2023-12-07T09:12:38;101933.94;;;2.45;93.09
64200;BME280;50516;52.272;5.136;2023-12-07T09:15:03;101928.00;;;2.56;92.45
64200;BME280;50516;52.272;5.136;2023-12-07T09:17:29;101926.69;;;2.52;92.52
64200;BME280;50516;52.272;5.136;2023-12-07T09:19:54;101928.38;;;2.53;92.20
64200;BME280;50516;52.272;5.136;2023-12-07T09:22:20;101925.56;;;2.61;91.74
64200;BME280;50516;52.272;5.136;2023-12-07T09:24:46;101920.13;;;2.61;91.85
64200;BME280;50516;52.272;5.136;2023-12-07T09:27:14;101928.78;;;2.50;91.99
64200;BME280;50516;52.272;5.136;2023-12-07T09:29:39;101939.03;;;2.54;92.81
64200;BME280;50516;52.272;5.136;2023-12-07T09:32:07;101936.13;;;2.56;93.09
64200;BME280;50516;52.272;5.136;2023-12-07T09:34:32;101936.38;;;2.40;93.05
64200;BME280;50516;52.272;5.136;2023-12-07T09:37:08;101940.97;;;2.39;93.49
64200;BME280;50516;52.272;5.136;2023-12-07T09:39:33;101947.75;;;2.50;93.53
64200;BME280;50516;52.272;5.136;2023-12-07T09:41:59;101949.81;;;2.48;93.47
64200;BME280;50516;52.272;5.136;2023-12-07T09:44:26;101955.50;;;2.53;93.21
64200;BME280;50516;52.272;5.136;2023-12-07T09:46:51;101950.88;;;2.68;92.90
64200;BME280;50516;52.272;5.136;2023-12-07T09:49:16;101931.97;;;2.75;92.73
64200;BME280;50516;52.272;5.136;2023-12-07T09:51:42;101937.59;;;2.73;92.77
64200;BME280;50516;52.272;5.136;2023-12-07T09:54:08;101930.09;;;2.76;92.54
64200;BME280;50516;52.272;5.136;2023-12-07T09:56:34;101922.41;;;2.58;92.90
64200;BME280;50516;52.272;5.136;2023-12-07T09:58:59;101925.16;;;2.64;93.74
64200;BME280;50516;52.272;5.136;2023-12-07T10:01:29;101925.56;;;2.83;93.06
64200;BME280;50516;52.272;5.136;2023-12-07T10:04:21;101919.09;;;2.84;93.05
64200;BME280;50516;52.272;5.136;2023-12-07T10:06:51;101908.25;;;2.84;92.76
64200;BME280;50516;52.272;5.136;2023-12-07T10:09:17;101922.00;;;2.82;92.82
64200;BME280;50516;52.272;5.136;2023-12-07T10:11:44;101902.63;;;2.85;93.41
64200;BME280;50516;52.272;5.136;2023-12-07T10:14:10;101889.66;;;3.02;92.96
64200;BME280;50516;52.272;5.136;2023-12-07T10:16:36;101878.53;;;2.97;92.12
64200;BME280;50516;52.272;5.136;2023-12-07T10:19:14;101874.53;;;2.93;92.91
64200;BME280;50516;52.272;5.136;2023-12-07T10:21:43;101881.50;;;3.02;92.51
64200;BME280;50516;52.272;5.136;2023-12-07T10:24:09;101872.97;;;3.05;92.67
64200;BME280;50516;52.272;5.136;2023-12-07T10:26:34;101888.47;;;2.90;92.79
64200;BME280;50516;52.272;5.136;2023-12-07T10:29:02;101894.53;;;2.92;92.72
64200;BME280;50516;52.272;5.136;2023-12-07T10:31:29;101879.47;;;2.83;93.36
64200;BME280;50516;52.272;5.136;2023-12-07T10:33:56;101867.75;;;2.82;92.42
64200;BME280;50516;52.272;5.136;2023-12-07T10:36:21;101869.19;;;2.78;93.00
64200;BME280;50516;52.272;5.136;2023-12-07T10:38:47;101867.91;;;2.52;93.23
64200;BME280;50516;52.272;5.136;2023-12-07T10:41:16;101866.66;;;2.55;94.34
64200;BME280;50516;52.272;5.136;2023-12-07T10:43:43;101873.97;;;2.76;94.81
64200;BME280;50516;52.272;5.136;2023-12-07T10:46:14;101870.22;;;2.77;93.99
64200;BME280;50516;52.272;5.136;2023-12-07T10:48:43;101859.66;;;2.61;94.39
64200;BME280;50516;52.272;5.136;2023-12-07T10:51:10;101859.44;;;2.84;94.16
64200;BME280;50516;52.272;5.136;2023-12-07T10:53:40;101858.09;;;3.01;93.96
64200;BME280;50516;52.272;5.136;2023-12-07T10:56:11;101864.50;;;2.93;93.93
64200;BME280;50516;52.272;5.136;2023-12-07T10:58:38;101854.22;;;3.10;93.43
64200;BME280;50516;52.272;5.136;2023-12-07T11:01:07;101849.66;;;3.18;93.11
64200;BME280;50516;52.272;5.136;2023-12-07T11:03:32;101844.66;;;3.21;93.32
64200;BME280;50516;52.272;5.136;2023-12-07T11:05:58;101840.94;;;3.22;92.41
64200;BME280;50516;52.272;5.136;2023-12-07T11:08:31;101823.41;;;3.25;92.88
64200;BME280;50516;52.272;5.136;2023-12-07T11:14:07;101828.84;;;3.25;93.02
64200;BME280;50516;52.272;5.136;2023-12-07T11:16:33;101827.59;;;3.27;92.36
64200;BME280;50516;52.272;5.136;2023-12-07T11:18:59;101807.78;;;3.34;92.71
64200;BME280;50516;52.272;5.136;2023-12-07T11:21:25;101820.56;;;3.40;92.64
64200;BME280;50516;52.272;5.136;2023-12-07T11:23:51;101813.03;;;3.35;92.46
64200;BME280;50516;52.272;5.136;2023-12-07T11:26:22;101796.03;;;3.20;92.73
64200;BME280;50516;52.272;5.136;2023-12-07T11:28:48;101807.13;;;3.25;92.48
64200;BME280;50516;52.272;5.136;2023-12-07T11:31:14;101805.72;;;3.36;92.55
64200;BME280;50516;52.272;5.136;2023-12-07T11:33:41;101804.25;;;3.33;92.82
64200;BME280;50516;52.272;5.136;2023-12-07T11:36:10;101789.63;;;3.34;92.38
64200;BME280;50516;52.272;5.136;2023-12-07T11:38:38;101791.34;;;3.42;92.28
64200;BME280;50516;52.272;5.136;2023-12-07T11:41:04;101792.44;;;3.47;91.97
64200;BME280;50516;52.272;5.136;2023-12-07T11:45:58;101797.19;;;3.04;92.62
64200;BME280;50516;52.272;5.136;2023-12-07T11:48:24;101792.63;;;3.11;93.09
64200;BME280;50516;52.272;5.136;2023-12-07T11:51:03;101794.63;;;3.31;93.31
64200;BME280;50516;52.272;5.136;2023-12-07T11:53:31;101795.63;;;3.23;92.70
64200;BME280;50516;52.272;5.136;2023-12-07T11:56:15;101790.16;;;3.16;92.72
64200;BME280;50516;52.272;5.136;2023-12-07T11:58:45;101797.69;;;3.21;92.93
64200;BME280;50516;52.272;5.136;2023-12-07T12:01:13;101780.00;;;3.25;92.90
64200;BME280;50516;52.272;5.136;2023-12-07T12:03:39;101767.91;;;3.34;93.04
64200;BME280;50516;52.272;5.136;2023-12-07T12:06:05;101760.41;;;3.36;92.75
64200;BME280;50516;52.272;5.136;2023-12-07T12:08:32;101755.97;;;3.22;92.72
64200;BME280;50516;52.272;5.136;2023-12-07T12:10:58;101749.75;;;3.35;92.68
64200;BME280;50516;52.272;5.136;2023-12-07T12:13:36;101746.03;;;3.42;92.61
64200;BME280;50516;52.272;5.136;2023-12-07T12:16:01;101755.44;;;3.46;92.07
64200;BME280;50516;52.272;5.136;2023-12-07T12:18:27;101752.94;;;3.52;92.04
64200;BME280;50516;52.272;5.136;2023-12-07T12:20:54;101748.31;;;3.45;91.88
64200;BME280;50516;52.272;5.136;2023-12-07T12:23:19;101740.88;;;3.61;91.79
64200;BME280;50516;52.272;5.136;2023-12-07T12:25:45;101736.66;;;3.52;92.22
64200;BME280;50516;52.272;5.136;2023-12-07T12:28:17;101733.34;;;3.56;92.14
64200;BME280;50516;52.272;5.136;2023-12-07T12:30:47;101732.53;;;3.62;92.12
64200;BME280;50516;52.272;5.136;2023-12-07T12:33:12;101720.19;;;3.60;92.19
64200;BME280;50516;52.272;5.136;2023-12-07T12:35:38;101716.63;;;3.59;92.09
64200;BME280;50516;52.272;5.136;2023-12-07T12:38:09;101713.22;;;3.37;91.98
64200;BME280;50516;52.272;5.136;2023-12-07T12:40:34;101697.13;;;3.36;92.74
64200;BME280;50516;52.272;5.136;2023-12-07T12:42:59;101690.69;;;3.50;92.76
64200;BME280;50516;52.272;5.136;2023-12-07T12:45:25;101685.28;;;3.57;92.82
64200;BME280;50516;52.272;5.136;2023-12-07T12:47:50;101675.91;;;3.66;92.45
64200;BME280;50516;52.272;5.136;2023-12-07T12:50:36;101670.69;;;3.71;91.79
64200;BME280;50516;52.272;5.136;2023-12-07T12:53:03;101662.34;;;3.73;92.23
64200;BME280;50516;52.272;5.136;2023-12-07T12:55:37;101659.81;;;3.64;92.06
64200;BME280;50516;52.272;5.136;2023-12-07T12:58:04;101652.50;;;3.58;92.17
64200;BME280;50516;52.272;5.136;2023-12-07T13:00:31;101643.94;;;3.68;92.29
64200;BME280;50516;52.272;5.136;2023-12-07T13:03:03;101646.50;;;3.76;92.17